sensor_id;sensor_type;location;lat;lon;timestamp;P1;durP1;ratioP1;P2;durP2;ratioP2
23676;SDS011;31493;49.058;12.190;2022-10-19T00:00:43;264.38;;;29.75;;
23676;SDS011;31493;49.058;12.190;2022-10-19T00:03:10;266.88;;;18.50;;
23676;SDS011;31493;49.058;12.190;2022-10-19T00:05:37;304.27;;;28.38;;
23676;SDS011;31493;49.058;12.190;2022-10-19T00:08:04;223.25;;;20.15;;
23676;SDS011;31493;49.058;12.190;2022-10-19T00:10:32;218.75;;;20.70;;
23676;SDS011;31493;49.058;12.190;2022-10-19T00:12:59;282.58;;;21.55;;
23676;SDS011;31493;49.058;12.190;2022-10-19T00:15:26;282.27;;;19.77;;
23676;SDS011;31493;49.058;12.190;2022-10-19T00:17:54;470.10;;;28.77;;
23676;SDS011;31493;49.058;12.190;2022-10-19T00:20:21;395.55;;;27.85;;
23676;SDS011;31493;49.058;12.190;2022-10-19T00:22:48;553.92;;;25.45;;
23676;SDS011;31493;49.058;12.190;2022-10-19T00:25:16;404.45;;;24.65;;
23676;SDS011;31493;49.058;12.190;2022-10-19T00:27:43;699.70;;;29.02;;
23676;SDS011;31493;49.058;12.190;2022-10-19T00:30:10;857.08;;;35.22;;
23676;SDS011;31493;49.058;12.190;2022-10-19T00:32:37;596.10;;;22.40;;
23676;SDS011;31493;49.058;12.190;2022-10-19T00:35:06;991.15;;;35.75;;
23676;SDS011;31493;49.058;12.190;2022-10-19T00:37:34;773.20;;;34.67;;
23676;SDS011;31493;49.058;12.190;2022-10-19T00:40:01;1240.97;;;53.58;;
23676;SDS011;31493;49.058;12.190;2022-10-19T00:42:29;483.93;;;30.33;;
23676;SDS011;31493;49.058;12.190;2022-10-19T00:44:57;558.97;;;32.38;;
23676;SDS011;31493;49.058;12.190;2022-10-19T00:47:27;441.13;;;25.67;;
23676;SDS011;31493;49.058;12.190;2022-10-19T00:49:54;695.75;;;37.95;;
23676;SDS011;31493;49.058;12.190;2022-10-19T00:52:24;497.52;;;27.70;;
23676;SDS011;31493;49.058;12.190;2022-10-19T00:54:53;602.40;;;34.33;;
23676;SDS011;31493;49.058;12.190;2022-10-19T00:57:23;553.58;;;36.65;;
23676;SDS011;31493;49.058;12.190;2022-10-19T00:59:54;162.25;;;22.80;;
23676;SDS011;31493;49.058;12.190;2022-10-19T01:02:22;185.57;;;22.77;;
23676;SDS011;31493;49.058;12.190;2022-10-19T01:04:49;312.77;;;30.13;;
23676;SDS011;31493;49.058;12.190;2022-10-19T01:07:17;308.08;;;32.33;;
23676;SDS011;31493;49.058;12.190;2022-10-19T01:09:47;336.92;;;27.42;;
23676;SDS011;31493;49.058;12.190;2022-10-19T01:12:17;592.97;;;36.53;;
23676;SDS011;31493;49.058;12.190;2022-10-19T01:15:02;746.78;;;43.42;;
23676;SDS011;31493;49.058;12.190;2022-10-19T01:17:41;583.25;;;30.83;;
23676;SDS011;31493;49.058;12.190;2022-10-19T01:20:30;411.90;;;29.80;;
23676;SDS011;31493;49.058;12.190;2022-10-19T01:23:17;428.27;;;28.98;;
23676;SDS011;31493;49.058;12.190;2022-10-19T01:26:06;546.70;;;32.50;;
23676;SDS011;31493;49.058;12.190;2022-10-19T01:28:47;710.72;;;36.40;;
23676;SDS011;31493;49.058;12.190;2022-10-19T01:31:31;596.55;;;27.65;;
23676;SDS011;31493;49.058;12.190;2022-10-19T01:34:05;677.70;;;36.05;;
23676;SDS011;31493;49.058;12.190;2022-10-19T01:36:40;767.28;;;26.02;;
23676;SDS011;31493;49.058;12.190;2022-10-19T01:39:10;553.20;;;26.30;;
23676;SDS011;31493;49.058;12.190;2022-10-19T01:41:42;806.50;;;30.52;;
23676;SDS011;31493;49.058;12.190;2022-10-19T01:44:15;966.42;;;36.50;;
23676;SDS011;31493;49.058;12.190;2022-10-19T01:46:50;608.45;;;28.08;;
23676;SDS011;31493;49.058;12.190;2022-10-19T01:49:22;637.10;;;29.15;;
23676;SDS011;31493;49.058;12.190;2022-10-19T01:51:55;653.38;;;34.47;;
23676;SDS011;31493;49.058;12.190;2022-10-19T01:54:25;774.42;;;31.48;;
23676;SDS011;31493;49.058;12.190;2022-10-19T01:56:57;665.70;;;29.45;;
23676;SDS011;31493;49.058;12.190;2022-10-19T01:59:27;651.42;;;26.88;;
23676;SDS011;31493;49.058;12.190;2022-10-19T02:01:57;566.75;;;27.70;;
23676;SDS011;31493;49.058;12.190;2022-10-19T02:04:24;512.33;;;23.85;;
23676;SDS011;31493;49.058;12.190;2022-10-19T02:06:52;701.42;;;25.90;;
23676;SDS011;31493;49.058;12.190;2022-10-19T02:09:20;879.53;;;37.35;;
23676;SDS011;31493;49.058;12.190;2022-10-19T02:11:48;745.72;;;36.53;;
23676;SDS011;31493;49.058;12.190;2022-10-19T02:14:17;577.15;;;26.85;;
23676;SDS011;31493;49.058;12.190;2022-10-19T02:16:48;625.00;;;28.15;;
23676;SDS011;31493;49.058;12.190;2022-10-19T02:19:19;520.88;;;25.25;;
23676;SDS011;31493;49.058;12.190;2022-10-19T02:21:48;488.05;;;24.58;;
23676;SDS011;31493;49.058;12.190;2022-10-19T02:26:43;520.45;;;23.50;;
23676;SDS011;31493;49.058;12.190;2022-10-19T02:29:11;1123.82;;;47.35;;
23676;SDS011;31493;49.058;12.190;2022-10-19T02:31:40;531.47;;;22.55;;
23676;SDS011;31493;49.058;12.190;2022-10-19T02:34:07;486.83;;;23.58;;
23676;SDS011;31493;49.058;12.190;2022-10-19T02:36:37;571.92;;;23.80;;
23676;SDS011;31493;49.058;12.190;2022-10-19T02:39:04;351.80;;;18.90;;
23676;SDS011;31493;49.058;12.190;2022-10-19T02:41:33;571.03;;;24.35;;
23676;SDS011;31493;49.058;12.190;2022-10-19T02:44:06;894.60;;;36.70;;
23676;SDS011;31493;49.058;12.190;2022-10-19T02:46:39;635.17;;;28.65;;
23676;SDS011;31493;49.058;12.190;2022-10-19T02:49:09;756.83;;;34.28;;
23676;SDS011;31493;49.058;12.190;2022-10-19T02:51:40;605.53;;;30.38;;
23676;SDS011;31493;49.058;12.190;2022-10-19T02:54:22;803.75;;;35.55;;
23676;SDS011;31493;49.058;12.190;2022-10-19T02:56:50;618.50;;;29.13;;
23676;SDS011;31493;49.058;12.190;2022-10-19T02:59:17;521.53;;;24.65;;
23676;SDS011;31493;49.058;12.190;2022-10-19T03:01:44;747.08;;;34.97;;
23676;SDS011;31493;49.058;12.190;2022-10-19T03:04:11;986.40;;;43.80;;
23676;SDS011;31493;49.058;12.190;2022-10-19T03:06:39;586.53;;;28.20;;
23676;SDS011;31493;49.058;12.190;2022-10-19T03:09:06;721.72;;;32.28;;
23676;SDS011;31493;49.058;12.190;2022-10-19T03:11:33;553.67;;;30.05;;
23676;SDS011;31493;49.058;12.190;2022-10-19T03:14:00;836.67;;;41.10;;
23676;SDS011;31493;49.058;12.190;2022-10-19T03:16:28;578.78;;;28.08;;
23676;SDS011;31493;49.058;12.190;2022-10-19T03:18:55;708.20;;;36.03;;
23676;SDS011;31493;49.058;12.190;2022-10-19T03:21:22;695.47;;;30.08;;
23676;SDS011;31493;49.058;12.190;2022-10-19T03:23:50;721.45;;;37.38;;
23676;SDS011;31493;49.058;12.190;2022-10-19T03:26:17;776.08;;;36.22;;
23676;SDS011;31493;49.058;12.190;2022-10-19T03:28:44;878.33;;;43.15;;
23676;SDS011;31493;49.058;12.190;2022-10-19T03:31:11;766.13;;;36.50;;
23676;SDS011;31493;49.058;12.190;2022-10-19T03:33:38;574.90;;;22.67;;
23676;SDS011;31493;49.058;12.190;2022-10-19T03:36:12;639.65;;;27.48;;
23676;SDS011;31493;49.058;12.190;2022-10-19T03:38:40;834.80;;;34.13;;
23676;SDS011;31493;49.058;12.190;2022-10-19T03:41:09;695.65;;;35.95;;
23676;SDS011;31493;49.058;12.190;2022-10-19T03:43:36;724.17;;;37.15;;
23676;SDS011;31493;49.058;12.190;2022-10-19T03:46:03;395.52;;;23.65;;
23676;SDS011;31493;49.058;12.190;2022-10-19T03:48:30;405.92;;;22.33;;
23676;SDS011;31493;49.058;12.190;2022-10-19T03:50:58;503.07;;;24.90;;
23676;SDS011;31493;49.058;12.190;2022-10-19T03:53:26;604.92;;;28.73;;
23676;SDS011;31493;49.058;12.190;2022-10-19T03:56:02;444.35;;;22.65;;
23676;SDS011;31493;49.058;12.190;2022-10-19T03:58:32;355.17;;;15.68;;
23676;SDS011;31493;49.058;12.190;2022-10-19T04:01:01;566.33;;;25.73;;
23676;SDS011;31493;49.058;12.190;2022-10-19T04:03:34;304.55;;;16.45;;
23676;SDS011;31493;49.058;12.190;2022-10-19T04:06:01;670.17;;;30.23;;
23676;SDS011;31493;49.058;12.190;2022-10-19T04:08:29;400.00;;;18.67;;
23676;SDS011;31493;49.058;12.190;2022-10-19T04:10:59;534.53;;;21.90;;
23676;SDS011;31493;49.058;12.190;2022-10-19T04:13:27;589.85;;;23.58;;
23676;SDS011;31493;49.058;12.190;2022-10-19T04:15:56;704.78;;;26.13;;
23676;SDS011;31493;49.058;12.190;2022-10-19T04:18:23;717.90;;;27.30;;
23676;SDS011;31493;49.058;12.190;2022-10-19T04:20:54;825.17;;;31.02;;
23676;SDS011;31493;49.058;12.190;2022-10-19T04:23:22;893.63;;;35.75;;
23676;SDS011;31493;49.058;12.190;2022-10-19T04:25:49;698.70;;;21.40;;
23676;SDS011;31493;49.058;12.190;2022-10-19T04:28:16;993.92;;;30.42;;
23676;SDS011;31493;49.058;12.190;2022-10-19T04:30:43;911.13;;;34.15;;
23676;SDS011;31493;49.058;12.190;2022-10-19T04:33:11;1037.03;;;35.33;;
23676;SDS011;31493;49.058;12.190;2022-10-19T04:35:38;986.53;;;41.17;;
23676;SDS011;31493;49.058;12.190;2022-10-19T04:38:05;865.03;;;28.13;;
23676;SDS011;31493;49.058;12.190;2022-10-19T04:40:33;663.10;;;25.08;;
23676;SDS011;31493;49.058;12.190;2022-10-19T04:43:00;720.42;;;27.42;;
23676;SDS011;31493;49.058;12.190;2022-10-19T04:45:28;395.95;;;17.00;;
23676;SDS011;31493;49.058;12.190;2022-10-19T04:47:55;413.75;;;14.38;;
23676;SDS011;31493;49.058;12.190;2022-10-19T04:50:23;444.63;;;13.13;;
23676;SDS011;31493;49.058;12.190;2022-10-19T04:52:50;569.95;;;18.25;;
23676;SDS011;31493;49.058;12.190;2022-10-19T04:55:17;541.55;;;14.48;;
23676;SDS011;31493;49.058;12.190;2022-10-19T04:57:44;296.88;;;9.75;;
23676;SDS011;31493;49.058;12.190;2022-10-19T05:00:12;565.03;;;16.83;;
23676;SDS011;31493;49.058;12.190;2022-10-19T05:02:41;474.08;;;13.52;;
23676;SDS011;31493;49.058;12.190;2022-10-19T05:05:08;443.67;;;15.90;;
23676;SDS011;31493;49.058;12.190;2022-10-19T05:07:37;391.50;;;15.18;;
23676;SDS011;31493;49.058;12.190;2022-10-19T05:10:05;436.90;;;15.13;;
23676;SDS011;31493;49.058;12.190;2022-10-19T05:15:00;372.85;;;13.00;;
23676;SDS011;31493;49.058;12.190;2022-10-19T05:17:29;355.73;;;13.43;;
23676;SDS011;31493;49.058;12.190;2022-10-19T05:19:56;565.08;;;20.02;;
23676;SDS011;31493;49.058;12.190;2022-10-19T05:22:23;471.65;;;18.27;;
23676;SDS011;31493;49.058;12.190;2022-10-19T05:24:51;604.40;;;21.92;;
23676;SDS011;31493;49.058;12.190;2022-10-19T05:27:18;588.33;;;21.35;;
23676;SDS011;31493;49.058;12.190;2022-10-19T05:29:46;579.53;;;18.40;;
23676;SDS011;31493;49.058;12.190;2022-10-19T05:32:13;303.02;;;10.52;;
23676;SDS011;31493;49.058;12.190;2022-10-19T05:34:40;431.95;;;14.75;;
23676;SDS011;31493;49.058;12.190;2022-10-19T05:37:07;310.75;;;10.70;;
23676;SDS011;31493;49.058;12.190;2022-10-19T05:39:34;543.47;;;18.13;;
23676;SDS011;31493;49.058;12.190;2022-10-19T05:42:03;429.17;;;14.27;;
23676;SDS011;31493;49.058;12.190;2022-10-19T05:44:30;362.48;;;12.57;;
23676;SDS011;31493;49.058;12.190;2022-10-19T05:46:57;365.77;;;14.10;;
23676;SDS011;31493;49.058;12.190;2022-10-19T05:49:25;340.80;;;11.23;;
23676;SDS011;31493;49.058;12.190;2022-10-19T05:51:52;475.95;;;16.50;;
23676;SDS011;31493;49.058;12.190;2022-10-19T05:54:19;443.35;;;12.82;;
23676;SDS011;31493;49.058;12.190;2022-10-19T05:56:46;635.28;;;22.25;;
23676;SDS011;31493;49.058;12.190;2022-10-19T05:59:15;435.77;;;15.50;;
23676;SDS011;31493;49.058;12.190;2022-10-19T06:01:44;500.75;;;16.45;;
23676;SDS011;31493;49.058;12.190;2022-10-19T06:04:12;859.03;;;28.13;;
23676;SDS011;31493;49.058;12.190;2022-10-19T06:06:40;373.48;;;12.02;;
23676;SDS011;31493;49.058;12.190;2022-10-19T06:09:08;380.77;;;14.50;;
23676;SDS011;31493;49.058;12.190;2022-10-19T06:11:36;607.90;;;20.40;;
23676;SDS011;31493;49.058;12.190;2022-10-19T06:14:05;680.85;;;27.80;;
23676;SDS011;31493;49.058;12.190;2022-10-19T06:16:35;408.00;;;17.10;;
23676;SDS011;31493;49.058;12.190;2022-10-19T06:19:03;715.47;;;27.35;;
23676;SDS011;31493;49.058;12.190;2022-10-19T06:21:31;354.65;;;12.75;;
23676;SDS011;31493;49.058;12.190;2022-10-19T06:24:01;292.58;;;11.88;;
23676;SDS011;31493;49.058;12.190;2022-10-19T06:26:30;550.70;;;20.38;;
23676;SDS011;31493;49.058;12.190;2022-10-19T06:28:58;410.90;;;15.68;;
23676;SDS011;31493;49.058;12.190;2022-10-19T06:31:26;451.30;;;18.38;;
23676;SDS011;31493;49.058;12.190;2022-10-19T06:33:55;415.55;;;17.00;;
23676;SDS011;31493;49.058;12.190;2022-10-19T06:36:24;445.83;;;20.65;;
23676;SDS011;31493;49.058;12.190;2022-10-19T06:38:52;324.83;;;14.32;;
23676;SDS011;31493;49.058;12.190;2022-10-19T06:41:20;393.77;;;17.17;;
23676;SDS011;31493;49.058;12.190;2022-10-19T06:43:48;386.58;;;18.08;;
23676;SDS011;31493;49.058;12.190;2022-10-19T06:46:16;364.20;;;18.97;;
23676;SDS011;31493;49.058;12.190;2022-10-19T06:48:48;241.63;;;14.38;;
23676;SDS011;31493;49.058;12.190;2022-10-19T06:51:18;198.88;;;12.32;;
23676;SDS011;31493;49.058;12.190;2022-10-19T06:53:45;265.13;;;12.02;;
23676;SDS011;31493;49.058;12.190;2022-10-19T06:56:12;732.75;;;28.88;;
23676;SDS011;31493;49.058;12.190;2022-10-19T06:58:40;542.30;;;19.13;;
23676;SDS011;31493;49.058;12.190;2022-10-19T07:01:07;448.63;;;18.67;;
23676;SDS011;31493;49.058;12.190;2022-10-19T07:03:36;649.40;;;24.45;;
23676;SDS011;31493;49.058;12.190;2022-10-19T07:06:04;419.15;;;15.23;;
23676;SDS011;31493;49.058;12.190;2022-10-19T07:08:34;309.25;;;13.65;;
23676;SDS011;31493;49.058;12.190;2022-10-19T07:11:02;326.40;;;16.33;;
23676;SDS011;31493;49.058;12.190;2022-10-19T07:13:31;377.83;;;16.58;;
23676;SDS011;31493;49.058;12.190;2022-10-19T07:16:00;238.55;;;13.93;;
23676;SDS011;31493;49.058;12.190;2022-10-19T07:18:30;280.42;;;14.43;;
23676;SDS011;31493;49.058;12.190;2022-10-19T07:20:57;330.48;;;16.30;;
23676;SDS011;31493;49.058;12.190;2022-10-19T07:23:26;530.60;;;24.90;;
23676;SDS011;31493;49.058;12.190;2022-10-19T07:25:56;177.15;;;11.02;;
23676;SDS011;31493;49.058;12.190;2022-10-19T07:28:26;510.92;;;20.98;;
23676;SDS011;31493;49.058;12.190;2022-10-19T07:30:54;597.47;;;25.43;;
23676;SDS011;31493;49.058;12.190;2022-10-19T07:33:21;410.98;;;17.73;;
23676;SDS011;31493;49.058;12.190;2022-10-19T07:35:48;479.33;;;17.55;;
23676;SDS011;31493;49.058;12.190;2022-10-19T07:38:15;563.58;;;18.30;;
23676;SDS011;31493;49.058;12.190;2022-10-19T07:40:42;655.42;;;24.10;;
23676;SDS011;31493;49.058;12.190;2022-10-19T07:43:11;369.13;;;14.40;;
23676;SDS011;31493;49.058;12.190;2022-10-19T07:45:38;555.28;;;16.98;;
23676;SDS011;31493;49.058;12.190;2022-10-19T07:48:05;679.63;;;24.80;;
23676;SDS011;31493;49.058;12.190;2022-10-19T07:50:32;950.65;;;36.17;;
23676;SDS011;31493;49.058;12.190;2022-10-19T07:52:59;585.38;;;23.77;;
23676;SDS011;31493;49.058;12.190;2022-10-19T07:55:28;753.28;;;23.48;;
23676;SDS011;31493;49.058;12.190;2022-10-19T07:57:54;770.75;;;29.77;;
23676;SDS011;31493;49.058;12.190;2022-10-19T08:00:27;1124.40;;;42.55;;
23676;SDS011;31493;49.058;12.190;2022-10-19T08:02:54;789.63;;;32.90;;
23676;SDS011;31493;49.058;12.190;2022-10-19T08:05:21;589.08;;;25.35;;
23676;SDS011;31493;49.058;12.190;2022-10-19T08:07:48;819.20;;;33.35;;
23676;SDS011;31493;49.058;12.190;2022-10-19T08:10:15;880.85;;;33.38;;
23676;SDS011;31493;49.058;12.190;2022-10-19T08:12:42;547.72;;;19.52;;
23676;SDS011;31493;49.058;12.190;2022-10-19T08:15:09;726.25;;;30.13;;
23676;SDS011;31493;49.058;12.190;2022-10-19T08:17:37;536.05;;;25.75;;
23676;SDS011;31493;49.058;12.190;2022-10-19T08:20:05;583.67;;;24.63;;
23676;SDS011;31493;49.058;12.190;2022-10-19T08:22:33;288.88;;;16.65;;
23676;SDS011;31493;49.058;12.190;2022-10-19T08:25:00;860.20;;;32.95;;
23676;SDS011;31493;49.058;12.190;2022-10-19T08:27:27;454.08;;;19.73;;
23676;SDS011;31493;49.058;12.190;2022-10-19T08:29:55;456.10;;;24.08;;
23676;SDS011;31493;49.058;12.190;2022-10-19T08:32:22;706.40;;;26.38;;
23676;SDS011;31493;49.058;12.190;2022-10-19T08:34:50;272.67;;;14.90;;
23676;SDS011;31493;49.058;12.190;2022-10-19T08:37:17;304.98;;;15.23;;
23676;SDS011;31493;49.058;12.190;2022-10-19T08:39:44;348.80;;;19.35;;
23676;SDS011;31493;49.058;12.190;2022-10-19T08:42:12;644.28;;;23.35;;
23676;SDS011;31493;49.058;12.190;2022-10-19T08:44:59;902.35;;;36.88;;
23676;SDS011;31493;49.058;12.190;2022-10-19T08:47:37;239.30;;;16.48;;
23676;SDS011;31493;49.058;12.190;2022-10-19T08:50:18;115.18;;;14.07;;
23676;SDS011;31493;49.058;12.190;2022-10-19T08:52:48;109.88;;;13.95;;
23676;SDS011;31493;49.058;12.190;2022-10-19T08:55:23;292.65;;;18.15;;
23676;SDS011;31493;49.058;12.190;2022-10-19T08:57:57;124.47;;;14.32;;
23676;SDS011;31493;49.058;12.190;2022-10-19T09:00:34;96.60;;;13.75;;
23676;SDS011;31493;49.058;12.190;2022-10-19T09:03:10;84.13;;;15.38;;
23676;SDS011;31493;49.058;12.190;2022-10-19T09:05:45;64.53;;;15.80;;
23676;SDS011;31493;49.058;12.190;2022-10-19T09:08:19;52.05;;;15.23;;
23676;SDS011;31493;49.058;12.190;2022-10-19T09:10:48;41.13;;;16.40;;
23676;SDS011;31493;49.058;12.190;2022-10-19T09:13:19;54.95;;;17.20;;
23676;SDS011;31493;49.058;12.190;2022-10-19T09:15:52;49.75;;;16.02;;
23676;SDS011;31493;49.058;12.190;2022-10-19T09:18:21;59.75;;;13.35;;
23676;SDS011;31493;49.058;12.190;2022-10-19T09:20:51;15.27;;;11.23;;
23676;SDS011;31493;49.058;12.190;2022-10-19T09:23:25;17.80;;;11.02;;
23676;SDS011;31493;49.058;12.190;2022-10-19T09:25:55;16.40;;;10.48;;
23676;SDS011;31493;49.058;12.190;2022-10-19T09:28:30;11.68;;;9.30;;
23676;SDS011;31493;49.058;12.190;2022-10-19T09:31:06;13.23;;;9.70;;
23676;SDS011;31493;49.058;12.190;2022-10-19T09:33:39;13.00;;;9.43;;
23676;SDS011;31493;49.058;12.190;2022-10-19T09:38:36;11.17;;;8.43;;
23676;SDS011;31493;49.058;12.190;2022-10-19T09:41:11;11.68;;;9.65;;
23676;SDS011;31493;49.058;12.190;2022-10-19T09:43:43;11.05;;;9.05;;
23676;SDS011;31493;49.058;12.190;2022-10-19T09:46:19;11.07;;;9.05;;
23676;SDS011;31493;49.058;12.190;2022-10-19T09:48:57;11.50;;;9.88;;
23676;SDS011;31493;49.058;12.190;2022-10-19T09:51:28;11.82;;;8.73;;
23676;SDS011;31493;49.058;12.190;2022-10-19T09:54:20;12.25;;;9.75;;
23676;SDS011;31493;49.058;12.190;2022-10-19T09:56:53;12.07;;;9.43;;
23676;SDS011;31493;49.058;12.190;2022-10-19T09:59:22;17.13;;;10.55;;
23676;SDS011;31493;49.058;12.190;2022-10-19T10:04:43;13.63;;;10.25;;
23676;SDS011;31493;49.058;12.190;2022-10-19T10:07:14;20.05;;;9.23;;
23676;SDS011;31493;49.058;12.190;2022-10-19T10:09:43;18.73;;;10.32;;
23676;SDS011;31493;49.058;12.190;2022-10-19T10:12:12;14.60;;;10.38;;
23676;SDS011;31493;49.058;12.190;2022-10-19T10:14:41;15.38;;;10.98;;
23676;SDS011;31493;49.058;12.190;2022-10-19T10:17:12;14.60;;;10.48;;
23676;SDS011;31493;49.058;12.190;2022-10-19T10:19:49;15.30;;;10.27;;
23676;SDS011;31493;49.058;12.190;2022-10-19T10:22:29;15.73;;;10.93;;
23676;SDS011;31493;49.058;12.190;2022-10-19T10:24:58;14.65;;;10.85;;
23676;SDS011;31493;49.058;12.190;2022-10-19T10:27:27;14.85;;;11.25;;
23676;SDS011;31493;49.058;12.190;2022-10-19T10:29:56;16.95;;;9.85;;
23676;SDS011;31493;49.058;12.190;2022-10-19T10:32:23;13.82;;;11.07;;
23676;SDS011;31493;49.058;12.190;2022-10-19T10:34:55;14.52;;;10.73;;
23676;SDS011;31493;49.058;12.190;2022-10-19T10:37:27;15.25;;;10.45;;
23676;SDS011;31493;49.058;12.190;2022-10-19T10:40:01;14.02;;;10.45;;
23676;SDS011;31493;49.058;12.190;2022-10-19T10:45:00;14.50;;;10.63;;
23676;SDS011;31493;49.058;12.190;2022-10-19T10:47:28;14.98;;;10.18;;
23676;SDS011;31493;49.058;12.190;2022-10-19T10:49:56;16.92;;;11.60;;
23676;SDS011;31493;49.058;12.190;2022-10-19T10:52:26;16.05;;;10.63;;
23676;SDS011;31493;49.058;12.190;2022-10-19T10:54:58;19.27;;;11.43;;
23676;SDS011;31493;49.058;12.190;2022-10-19T10:57:29;15.68;;;10.93;;
23676;SDS011;31493;49.058;12.190;2022-10-19T11:00:01;14.93;;;10.23;;
23676;SDS011;31493;49.058;12.190;2022-10-19T11:02:34;13.93;;;10.68;;
23676;SDS011;31493;49.058;12.190;2022-10-19T11:05:07;14.48;;;10.63;;
23676;SDS011;31493;49.058;12.190;2022-10-19T11:07:39;13.98;;;10.20;;
23676;SDS011;31493;49.058;12.190;2022-10-19T11:10:13;13.95;;;10.13;;
23676;SDS011;31493;49.058;12.190;2022-10-19T11:12:48;15.77;;;11.13;;
23676;SDS011;31493;49.058;12.190;2022-10-19T11:15:19;14.57;;;11.27;;
23676;SDS011;31493;49.058;12.190;2022-10-19T11:17:53;14.50;;;10.23;;
23676;SDS011;31493;49.058;12.190;2022-10-19T11:20:30;12.98;;;10.00;;
23676;SDS011;31493;49.058;12.190;2022-10-19T11:23:03;20.85;;;11.27;;
23676;SDS011;31493;49.058;12.190;2022-10-19T11:25:43;13.57;;;10.90;;
23676;SDS011;31493;49.058;12.190;2022-10-19T11:28:22;12.98;;;11.02;;
23676;SDS011;31493;49.058;12.190;2022-10-19T11:31:05;15.27;;;10.98;;
23676;SDS011;31493;49.058;12.190;2022-10-19T11:33:45;14.93;;;10.77;;
23676;SDS011;31493;49.058;12.190;2022-10-19T11:36:24;13.13;;;10.10;;
23676;SDS011;31493;49.058;12.190;2022-10-19T11:39:07;13.52;;;10.68;;
23676;SDS011;31493;49.058;12.190;2022-10-19T11:41:52;13.38;;;10.27;;
23676;SDS011;31493;49.058;12.190;2022-10-19T11:44:29;11.57;;;9.63;;
23676;SDS011;31493;49.058;12.190;2022-10-19T11:47:16;11.48;;;8.93;;
23676;SDS011;31493;49.058;12.190;2022-10-19T11:49:57;10.90;;;8.98;;
23676;SDS011;31493;49.058;12.190;2022-10-19T11:52:37;13.30;;;9.30;;
23676;SDS011;31493;49.058;12.190;2022-10-19T11:55:28;14.82;;;9.30;;
23676;SDS011;31493;49.058;12.190;2022-10-19T11:58:05;14.45;;;9.13;;
23676;SDS011;31493;49.058;12.190;2022-10-19T12:00:48;10.95;;;8.23;;
23676;SDS011;31493;49.058;12.190;2022-10-19T12:03:35;12.35;;;9.80;;
23676;SDS011;31493;49.058;12.190;2022-10-19T12:06:19;12.05;;;9.27;;
23676;SDS011;31493;49.058;12.190;2022-10-19T12:08:56;13.73;;;9.13;;
23676;SDS011;31493;49.058;12.190;2022-10-19T12:11:44;11.95;;;8.73;;
23676;SDS011;31493;49.058;12.190;2022-10-19T12:14:23;11.65;;;8.13;;
23676;SDS011;31493;49.058;12.190;2022-10-19T12:16:55;11.73;;;8.32;;
23676;SDS011;31493;49.058;12.190;2022-10-19T12:19:27;12.07;;;8.73;;
23676;SDS011;31493;49.058;12.190;2022-10-19T12:22:00;14.30;;;9.48;;
23676;SDS011;31493;49.058;12.190;2022-10-19T12:24:29;12.38;;;8.65;;
23676;SDS011;31493;49.058;12.190;2022-10-19T12:26:59;9.82;;;6.63;;
23676;SDS011;31493;49.058;12.190;2022-10-19T12:29:29;8.02;;;6.43;;
23676;SDS011;31493;49.058;12.190;2022-10-19T12:31:59;9.90;;;7.10;;
23676;SDS011;31493;49.058;12.190;2022-10-19T12:34:30;8.55;;;6.88;;
23676;SDS011;31493;49.058;12.190;2022-10-19T12:37:06;10.90;;;6.95;;
23676;SDS011;31493;49.058;12.190;2022-10-19T12:39:38;9.82;;;6.65;;
23676;SDS011;31493;49.058;12.190;2022-10-19T12:42:14;9.13;;;6.50;;
23676;SDS011;31493;49.058;12.190;2022-10-19T12:45:03;10.00;;;6.38;;
23676;SDS011;31493;49.058;12.190;2022-10-19T12:47:38;11.40;;;7.10;;
23676;SDS011;31493;49.058;12.190;2022-10-19T12:50:06;10.18;;;7.47;;
23676;SDS011;31493;49.058;12.190;2022-10-19T12:52:34;9.98;;;7.43;;
23676;SDS011;31493;49.058;12.190;2022-10-19T12:55:11;8.50;;;5.95;;
23676;SDS011;31493;49.058;12.190;2022-10-19T12:57:56;8.63;;;5.32;;
23676;SDS011;31493;49.058;12.190;2022-10-19T13:00:28;7.57;;;5.57;;
23676;SDS011;31493;49.058;12.190;2022-10-19T13:02:58;8.40;;;5.57;;
23676;SDS011;31493;49.058;12.190;2022-10-19T13:05:29;8.13;;;5.60;;
23676;SDS011;31493;49.058;12.190;2022-10-19T13:07:57;7.47;;;5.75;;
23676;SDS011;31493;49.058;12.190;2022-10-19T13:10:26;8.18;;;6.20;;
23676;SDS011;31493;49.058;12.190;2022-10-19T13:12:55;8.45;;;6.38;;
23676;SDS011;31493;49.058;12.190;2022-10-19T13:24:43;7.43;;;5.50;;
23676;SDS011;31493;49.058;12.190;2022-10-19T13:28:00;10.00;;;5.63;;
23676;SDS011;31493;49.058;12.190;2022-10-19T13:31:00;8.80;;;5.68;;
23676;SDS011;31493;49.058;12.190;2022-10-19T13:33:46;9.00;;;5.38;;
23676;SDS011;31493;49.058;12.190;2022-10-19T13:36:14;13.63;;;6.13;;
23676;SDS011;31493;49.058;12.190;2022-10-19T13:38:44;14.40;;;7.25;;
23676;SDS011;31493;49.058;12.190;2022-10-19T13:41:14;11.27;;;6.80;;
23676;SDS011;31493;49.058;12.190;2022-10-19T13:43:50;10.55;;;6.97;;
23676;SDS011;31493;49.058;12.190;2022-10-19T13:46:33;8.73;;;6.20;;
23676;SDS011;31493;49.058;12.190;2022-10-19T13:52:05;12.48;;;6.70;;
23676;SDS011;31493;49.058;12.190;2022-10-19T13:54:46;12.75;;;7.07;;
23676;SDS011;31493;49.058;12.190;2022-10-19T13:57:27;12.40;;;7.53;;
23676;SDS011;31493;49.058;12.190;2022-10-19T14:02:49;9.50;;;7.40;;
23676;SDS011;31493;49.058;12.190;2022-10-19T14:05:25;12.05;;;7.03;;
23676;SDS011;31493;49.058;12.190;2022-10-19T14:08:06;9.90;;;6.53;;
23676;SDS011;31493;49.058;12.190;2022-10-19T14:10:43;7.78;;;5.95;;
23676;SDS011;31493;49.058;12.190;2022-10-19T14:13:13;8.70;;;6.97;;
23676;SDS011;31493;49.058;12.190;2022-10-19T14:15:49;10.90;;;6.75;;
23676;SDS011;31493;49.058;12.190;2022-10-19T14:18:23;8.68;;;6.40;;
23676;SDS011;31493;49.058;12.190;2022-10-19T14:20:55;8.60;;;6.18;;
23676;SDS011;31493;49.058;12.190;2022-10-19T14:23:23;13.73;;;6.22;;
23676;SDS011;31493;49.058;12.190;2022-10-19T14:25:52;8.50;;;6.28;;
23676;SDS011;31493;49.058;12.190;2022-10-19T14:30:55;8.48;;;6.30;;
23676;SDS011;31493;49.058;12.190;2022-10-19T14:33:26;9.52;;;5.65;;
23676;SDS011;31493;49.058;12.190;2022-10-19T14:35:54;8.20;;;5.90;;
23676;SDS011;31493;49.058;12.190;2022-10-19T14:38:23;7.60;;;5.45;;
23676;SDS011;31493;49.058;12.190;2022-10-19T14:40:54;6.50;;;5.15;;
23676;SDS011;31493;49.058;12.190;2022-10-19T14:43:22;6.55;;;4.60;;
23676;SDS011;31493;49.058;12.190;2022-10-19T14:48:47;9.93;;;5.22;;
23676;SDS011;31493;49.058;12.190;2022-10-19T14:51:17;5.93;;;4.97;;
23676;SDS011;31493;49.058;12.190;2022-10-19T14:53:54;7.15;;;5.10;;
23676;SDS011;31493;49.058;12.190;2022-10-19T14:56:26;7.00;;;5.18;;
23676;SDS011;31493;49.058;12.190;2022-10-19T14:58:58;7.82;;;5.30;;
23676;SDS011;31493;49.058;12.190;2022-10-19T15:01:27;7.95;;;5.50;;